Time;durP1;ratioP1;P1;durP2;ratioP2;P2;SDS_P1;SDS_P2;PMS_P1;PMS_P2;Temp;Humidity;BMP_temperature;BMP_pressure;BME280_temperature;BME280_humidity;BME280_pressure;Samples;Min_cycle;Max_cycle;Signal;HPM_P1;HPM_P2
2022/10/19 00:01:31;;;;;;;;;;;;;;;7.84;100.00;102739.34;5060604;28;20037;-86
2022/10/19 00:04:09;;;;;;;59.53;9.20;;;;;;;7.87;100.00;102733.59;5039935;28;20382;-85
2022/10/19 00:07:14;;;;;;;35.35;7.88;;;;;;;7.84;100.00;102738.47;5041206;28;20041;-86
2022/10/19 00:09:56;;;;;;;146.95;12.27;;;;;;;7.80;100.00;102737.03;5037073;28;20052;-86
2022/10/19 00:12:42;;;;;;;11.90;6.13;;;;;;;8.04;100.00;102734.69;5033310;28;20146;-86
2022/10/19 00:15:49;;;;;;;18.23;6.55;;;;;;;8.37;100.00;102730.53;5038127;28;20494;-86
2022/10/19 00:18:35;;;;;;;12.15;6.10;;;;;;;8.44;100.00;102730.81;5048128;28;20065;-85
2022/10/19 00:21:04;;;;;;;13.20;6.45;;;;;;;8.44;100.00;102730.81;5054824;28;20163;-85
2022/10/19 00:23:41;;;;;;;;;;;;;;;;;;;;;
2022/10/19 00:26:36;;;;;;;14.52;7.15;;;;;;;8.60;100.00;102732.81;5042822;28;20132;-85
2022/10/19 00:29:03;;;;;;;16.40;7.53;;;;;;;8.27;100.00;102735.16;5058367;28;20131;-86
2022/10/19 00:31:31;;;;;;;15.43;7.50;;;;;;;8.34;100.00;102736.25;5041997;28;20519;-86
2022/10/19 00:34:36;;;;;;;20.38;6.88;;;;;;;8.10;100.00;102725.97;5046758;28;20052;-85
2022/10/19 00:37:06;;;;;;;18.40;7.23;;;;;;;8.02;100.00;102733.13;5031506;28;20046;-86
2022/10/19 00:42:35;;;;;;;10.45;6.13;;;;;;;8.27;100.00;102729.72;4956856;28;20085;-86
2022/10/19 00:48:32;;;;;;;;;;;;;;;;;;;;;
2022/10/19 00:51:19;;;;;;;19.33;6.82;;;;;;;7.92;100.00;102731.28;5043553;28;20048;-85
2022/10/19 00:53:57;;;;;;;13.18;6.82;;;;;;;7.86;100.00;102742.75;5044634;28;20048;-85
2022/10/19 00:56:26;;;;;;;19.15;8.02;;;;;;;7.88;100.00;102734.47;5036289;28;20049;-86
2022/10/19 00:58:53;;;;;;;18.10;6.32;;;;;;;7.90;100.00;102727.88;5037931;28;20041;-86
2022/10/19 01:01:57;;;;;;;14.23;6.15;;;;;;;7.93;100.00;102733.03;5040720;28;20045;-86
2022/10/19 01:04:55;;;;;;;14.82;6.00;;;;;;;7.60;100.00;102731.69;5053624;28;20133;-86
2022/10/19 01:07:38;;;;;;;11.95;6.47;;;;;;;7.55;100.00;102721.31;5040190;28;20040;-85
2022/10/19 01:10:38;;;;;;;9.57;5.20;;;;;;;7.45;100.00;102717.75;5054430;28;20060;-85
2022/10/19 01:20:36;;;;;;;19.30;5.80;;;;;;;7.13;100.00;102708.13;5056839;28;20128;-86
2022/10/19 01:23:50;;;;;;;8.57;5.43;;;;;;;7.17;100.00;102707.84;4975716;28;20047;-86
2022/10/19 01:26:54;;;;;;;9.80;5.13;;;;;;;7.39;100.00;102695.81;4955257;28;20048;-86
2022/10/19 01:30:04;;;;;;;11.80;5.20;;;;;;;6.96;100.00;102700.72;4984962;28;20061;-86
2022/10/19 01:35:51;;;;;;;15.00;5.25;;;;;;;6.94;100.00;102702.72;4992270;28;20054;-86
2022/10/19 01:38:47;;;;;;;11.38;4.65;;;;;;;6.96;100.00;102694.47;5000630;28;20054;-86
2022/10/19 01:41:23;;;;;;;9.95;5.07;;;;;;;6.91;100.00;102694.91;5003404;28;20041;-86
2022/10/19 01:44:21;;;;;;;8.55;4.53;;;;;;;6.99;100.00;102689.63;5027746;28;20135;-86
2022/10/19 01:47:24;;;;;;;8.02;4.80;;;;;;;7.29;100.00;102696.72;5053395;28;20427;-85
2022/10/19 01:50:04;;;;;;;7.97;4.60;;;;;;;7.14;100.00;102695.47;5045004;28;20064;-86
2022/10/19 01:52:53;;;;;;;;;;;;;;;;;;;;;
2022/10/19 01:55:41;;;;;;;13.20;5.70;;;;;;;6.98;100.00;102692.47;5039859;28;20053;-86
2022/10/19 01:58:47;;;;;;;11.38;4.60;;;;;;;7.07;100.00;102689.75;5044159;28;20498;-86
2022/10/19 02:01:37;;;;;;;7.75;4.35;;;;;;;7.01;100.00;102698.44;4963816;28;20175;-86
2022/10/19 02:04:17;;;;;;;8.77;4.50;;;;;;;7.03;100.00;102701.84;5044261;28;20060;-86
2022/10/19 02:07:16;;;;;;;14.32;5.13;;;;;;;6.79;100.00;102698.75;5041364;28;20526;-85
2022/10/19 02:19:30;;;;;;;11.40;5.28;;;;;;;6.52;100.00;102698.44;4986696;28;20050;-86
2022/10/19 02:25:22;;;;;;;9.73;5.35;;;;;;;6.20;100.00;102695.94;5020812;28;20893;-86
2022/10/19 02:30:52;;;;;;;8.18;4.13;;;;;;;6.17;100.00;102688.13;5045755;28;20048;-85
2022/10/19 02:36:23;;;;;;;12.25;5.18;;;;;;;5.89;100.00;102687.84;4995713;28;20057;-86
2022/10/19 02:39:07;;;;;;;13.40;5.00;;;;;;;6.00;100.00;102686.94;5000139;28;20042;-86
2022/10/19 02:44:42;;;;;;;13.32;5.10;;;;;;;5.98;100.00;102675.41;5045499;28;20180;-86
2022/10/19 02:47:43;;;;;;;7.00;4.15;;;;;;;5.88;100.00;102680.72;5042228;28;20037;-86
2022/10/19 02:50:29;;;;;;;7.65;3.92;;;;;;;6.05;100.00;102676.56;4971757;28;20058;-86
2022/10/19 02:53:05;;;;;;;11.73;5.13;;;;;;;5.85;100.00;102678.31;5055053;28;20486;-86
2022/10/19 02:58:43;;;;;;;11.82;4.75;;;;;;;6.00;100.00;102667.19;5043786;28;20045;-85
2022/10/19 03:01:37;;;;;;;8.15;4.25;;;;;;;6.10;100.00;102674.31;5043767;28;20029;-87
2022/10/19 03:04:05;;;;;;;9.00;4.85;;;;;;;6.14;100.00;102666.75;5039793;28;20056;-86
2022/10/19 03:06:32;;;;;;;21.17;4.95;;;;;;;6.19;100.00;102669.91;5045571;28;20059;-85
2022/10/19 03:09:23;;;;;;;8.18;5.50;;;;;;;6.12;100.00;102677.72;5037101;28;20146;-86
2022/10/19 03:12:22;;;;;;;8.32;5.53;;;;;;;6.33;100.00;102669.53;5056257;28;20049;-86
2022/10/19 03:15:26;;;;;;;17.23;5.53;;;;;;;6.28;100.00;102662.81;4979278;28;20122;-86
2022/10/19 03:18:18;;;;;;;14.73;6.65;;;;;;;6.12;100.00;102660.66;5039805;28;20616;-86
2022/10/19 03:24:39;;;;;;;18.83;6.95;;;;;;;5.84;100.00;102660.38;5039314;28;20154;-86
2022/10/19 03:30:15;;;;;;;15.65;7.85;;;;;;;6.16;100.00;102651.25;5043181;28;20041;-86
2022/10/19 03:32:43;;;;;;;10.95;6.47;;;;;;;6.17;100.00;102650.28;5040926;28;20072;-86
2022/10/19 03:35:37;;;;;;;9.25;6.63;;;;;;;6.23;100.00;102652.44;5045738;28;20144;-86
2022/10/19 03:38:05;;;;;;;15.20;6.15;;;;;;;6.37;100.00;102653.00;5040370;28;20044;-86
2022/10/19 03:40:34;;;;;;;12.55;7.07;;;;;;;6.27;100.00;102659.28;5038856;28;20399;-86
2022/10/19 03:43:25;;;;;;;11.57;6.43;;;;;;;6.22;100.00;102656.13;5039167;28;20702;-87
2022/10/19 03:46:11;;;;;;;12.38;6.57;;;;;;;6.15;100.00;102652.28;5012824;28;20054;-87
2022/10/19 03:48:39;;;;;;;9.30;6.22;;;;;;;5.78;100.00;102655.56;5039893;28;20477;-85
2022/10/19 03:51:36;;;;;;;14.20;6.40;;;;;;;5.90;100.00;102649.03;5038477;28;20045;-86
2022/10/19 03:54:06;;;;;;;13.30;6.57;;;;;;;5.81;100.00;102657.97;5043497;28;20041;-86
2022/10/19 04:02:41;;;;;;;16.33;6.68;;;;;;;6.35;100.00;102646.88;5046757;28;20045;-86
2022/10/19 04:05:39;;;;;;;13.77;6.05;;;;;;;6.25;100.00;102647.75;5047718;28;20123;-86
2022/10/19 04:08:42;;;;;;;17.38;8.43;;;;;;;5.87;100.00;102643.06;5043320;28;20604;-86
2022/10/19 04:15:06;;;;;;;13.80;6.15;;;;;;;5.90;100.00;102648.19;5041713;28;20085;-87
2022/10/19 04:20:19;;;;;;;11.88;6.60;;;;;;;5.37;100.00;102651.09;5044590;28;20052;-86
2022/10/19 04:22:53;;;;;;;14.73;5.97;;;;;;;5.47;100.00;102646.59;5041848;28;20041;-86
2022/10/19 04:25:51;;;;;;;8.68;5.40;;;;;;;5.56;100.00;102661.13;5042428;28;20111;-86
2022/10/19 04:31:51;;;;;;;;;;;;;;;;;;;;;
2022/10/19 04:35:02;;;;;;;14.32;5.15;;;;;;;5.84;100.00;102649.56;5057031;28;20053;-87
2022/10/19 04:38:05;;;;;;;15.35;6.05;;;;;;;5.66;100.00;102656.63;5038364;28;20127;-86
2022/10/19 04:41:01;;;;;;;17.10;5.15;;;;;;;5.86;100.00;102657.56;5035326;28;20037;-86
2022/10/19 04:43:55;;;;;;;12.18;5.43;;;;;;;5.91;100.00;102639.94;5031333;28;20059;-86
2022/10/19 04:46:54;;;;;;;11.23;5.55;;;;;;;5.91;100.00;102655.31;5008490;28;20079;-86
2022/10/19 04:49:35;;;;;;;13.00;6.00;;;;;;;6.04;100.00;102666.75;5044459;28;20045;-86
2022/10/19 04:52:41;;;;;;;12.82;5.13;;;;;;;6.02;100.00;102657.09;5037174;28;20120;-86
2022/10/19 04:55:53;;;;;;;9.35;5.07;;;;;;;5.76;100.00;102657.53;5043452;28;20049;-87
2022/10/19 05:02:10;;;;;;;14.20;5.00;;;;;;;5.62;100.00;102652.50;5036673;28;20059;-87
2022/10/19 05:05:08;;;;;;;14.35;5.18;;;;;;;5.41;100.00;102647.97;5036502;28;20119;-88
2022/10/19 05:07:52;;;;;;;8.65;5.65;;;;;;;5.48;100.00;102642.91;5036641;28;20055;-86
2022/10/19 05:10:21;;;;;;;10.27;5.10;;;;;;;5.21;100.00;102643.50;5050796;28;20526;-86
2022/10/19 05:12:52;;;;;;;15.10;5.40;;;;;;;4.96;100.00;102653.69;5040338;28;20041;-86
2022/10/19 05:18:40;;;;;;;15.10;5.57;;;;;;;5.28;100.00;102650.06;5042890;28;20049;-86
2022/10/19 05:28:09;;;;;;;10.23;4.72;;;;;;;5.28;100.00;102641.94;5012009;28;20136;-86
2022/10/19 05:35:14;;;;;;;14.27;4.43;;;;;;;5.30;100.00;102639.97;4940063;28;20045;-86
2022/10/19 05:37:57;;;;;;;13.40;5.53;;;;;;;5.34;100.00;102638.72;5001850;28;21731;-87
2022/10/19 05:41:14;;;;;;;;;;;;;;;;;;;;;
2022/10/19 05:51:04;;;;;;;8.85;4.45;;;;;;;5.13;100.00;102635.19;5046034;28;20350;-86
2022/10/19 06:01:07;;;;;;;7.72;4.72;;;;;;;5.16;100.00;102634.91;4984780;28;20175;-87
2022/10/19 06:03:42;;;;;;;10.52;5.32;;;;;;;4.90;100.00;102638.88;5005201;28;20109;-86
2022/10/19 06:06:36;;;;;;;11.70;5.47;;;;;;;4.95;100.00;102635.81;5014349;28;20079;-86
2022/10/19 06:09:06;;;;;;;9.33;5.40;;;;;;;5.02;100.00;102626.19;5015543;28;20137;-86
2022/10/19 06:15:04;;;;;;;10.02;5.25;;;;;;;4.80;100.00;102620.91;5036509;28;20161;-86
2022/10/19 06:17:53;;;;;;;15.23;5.43;;;;;;;4.75;100.00;102628.53;5049823;28;20498;-86
2022/10/19 06:20:27;;;;;;;11.18;5.10;;;;;;;5.11;100.00;102629.94;5028956;28;20049;-86
2022/10/19 06:24:03;;;;;;;11.70;5.28;;;;;;;4.90;100.00;102628.09;5046386;28;20051;-87
2022/10/19 06:27:05;;;;;;;;;;;;;;;;;;;;;
2022/10/19 06:30:19;;;;;;;8.68;5.68;;;;;;;4.78;100.00;102644.44;5043062;28;20398;-86
2022/10/19 06:33:13;;;;;;;7.68;4.38;;;;;;;5.10;100.00;102639.88;5057226;28;20044;-86
2022/10/19 06:35:43;;;;;;;11.35;3.95;;;;;;;4.97;100.00;102639.19;5048836;28;20518;-86
2022/10/19 06:38:45;;;;;;;;;;;;;;;;;;;;;
2022/10/19 06:41:17;;;;;;;19.70;6.63;;;;;;;4.98;100.00;102635.53;5036567;28;20106;-86
2022/10/19 06:50:20;;;;;;;9.27;4.60;;;;;;;4.99;100.00;102631.81;4972704;28;20152;-86
2022/10/19 06:53:16;;;;;;;13.60;5.18;;;;;;;4.92;100.00;102641.44;5019988;28;20049;-86
2022/10/19 06:55:49;;;;;;;9.07;4.57;;;;;;;4.81;100.00;102633.41;5016841;28;20116;-86
2022/10/19 07:01:31;;;;;;;16.45;5.22;;;;;;;5.08;100.00;102620.25;5017745;28;20053;-87
2022/10/19 07:04:01;;;;;;;13.43;5.03;;;;;;;5.40;100.00;102629.22;5021116;28;20045;-87
2022/10/19 07:07:03;;;;;;;9.65;5.00;;;;;;;5.62;100.00;102628.19;5022837;28;20507;-86
2022/10/19 07:09:57;;;;;;;8.98;4.95;;;;;;;5.26;100.00;102623.19;5019557;28;20049;-86
2022/10/19 07:12:52;;;;;;;12.65;4.45;;;;;;;5.26;100.00;102622.34;4964736;28;20061;-87
2022/10/19 07:15:41;;;;;;;7.53;4.55;;;;;;;5.29;100.00;102627.47;5020278;28;20045;-86
2022/10/19 07:18:45;;;;;;;9.68;5.40;;;;;;;5.71;100.00;102611.16;5015715;28;20123;-86
2022/10/19 07:21:50;;;;;;;10.73;4.57;;;;;;;5.47;100.00;102625.84;5022031;28;20049;-86
2022/10/19 07:30:32;;;;;;;6.93;5.32;;;;;;;5.86;100.00;102619.72;4885768;29;20056;-88
2022/10/19 07:36:05;;;;;;;15.00;6.60;;;;;;;5.97;100.00;102630.47;4939946;28;20150;-86
2022/10/19 07:42:02;;;;;;;13.18;6.78;;;;;;;6.12;100.00;102631.78;5016574;28;20053;-86
2022/10/19 07:44:44;;;;;;;;;;;;;;;;;;;;;
2022/10/19 07:47:33;;;;;;;12.45;5.13;;;;;;;6.26;100.00;102621.56;5018794;28;20081;-86
2022/10/19 07:56:19;;;;;;;13.32;5.10;;;;;;;6.60;100.00;102624.69;5021565;28;20046;-86
2022/10/19 08:02:07;;;;;;;;;;;;;;;;;;;;;
2022/10/19 08:05:04;;;;;;;13.68;5.45;;;;;;;6.71;100.00;102629.09;5021598;28;20145;-85
2022/10/19 08:07:33;;;;;;;15.55;5.30;;;;;;;6.75;100.00;102630.53;5021120;28;20557;-86
2022/10/19 08:10:39;;;;;;;13.00;4.57;;;;;;;6.74;100.00;102616.16;5016135;28;20103;-86
2022/10/19 08:13:06;;;;;;;11.93;6.57;;;;;;;6.86;100.00;102626.81;5020327;28;20050;-86
2022/10/19 08:18:40;;;;;;;17.25;6.68;;;;;;;6.99;100.00;102624.69;5022816;28;20058;-86
2022/10/19 08:21:09;;;;;;;22.88;10.43;;;;;;;7.05;100.00;102624.06;5016813;28;20034;-86
2022/10/19 08:24:15;;;;;;;16.20;5.40;;;;;;;7.19;100.00;102627.34;5027049;28;20037;-86
2022/10/19 08:26:42;;;;;;;12.32;5.43;;;;;;;7.60;100.00;102630.63;4949431;28;20045;-86
2022/10/19 08:29:43;;;;;;;;;;;;;;;;;;;;;
2022/10/19 08:32:18;;;;;;;;;;;;;;;7.75;100.00;102626.41;4913995;29;20066;-86
2022/10/19 08:37:51;;;;;;;18.92;7.45;;;;;;;8.04;100.00;102619.97;4913964;29;20115;-86
2022/10/19 08:40:21;;;;;;;23.77;8.60;;;;;;;8.31;100.00;102611.81;4926347;28;20052;-86
2022/10/19 08:43:16;;;;;;;;;;;;;;;;;;;;;
2022/10/19 08:49:04;;;;;;;16.23;7.63;;;;;;;8.53;100.00;102609.66;5014306;28;20195;-86
2022/10/19 09:12:05;;;;;;;23.48;9.93;;;;;;;10.28;100.00;102564.00;4987820;28;20699;-87
2022/10/19 09:14:56;;;;;;;20.48;9.30;;;;;;;10.76;100.00;102562.34;5041398;28;20064;-86
2022/10/19 09:17:40;;;;;;;26.70;9.00;;;;;;;10.90;100.00;102568.09;5024219;28;20115;-86
2022/10/19 09:20:52;;;;;;;21.60;8.35;;;;;;;10.82;100.00;102571.72;5045121;28;20296;-87
2022/10/19 09:30:04;;;;;;;17.58;7.63;;;;;;;11.48;100.00;102572.41;4982646;28;20104;-87
2022/10/19 09:32:52;;;;;;;18.50;7.13;;;;;;;11.58;100.00;102566.72;5036879;28;20066;-87
2022/10/19 09:38:28;;;;;;;16.98;7.20;;;;;;;11.79;100.00;102555.19;5009241;28;20573;-86
2022/10/19 09:40:57;;;;;;;13.13;6.43;;;;;;;11.79;100.00;102553.34;5021628;28;20049;-86
2022/10/19 09:49:43;;;;;;;16.80;5.43;;;;;;;12.32;100.00;102552.66;5019603;28;20061;-86
2022/10/19 09:52:56;;;;;;;12.85;4.97;;;;;;;12.23;100.00;102554.63;5038060;28;20140;-87
2022/10/19 09:58:30;;;;;;;10.48;4.03;;;;;;;12.79;100.00;102547.00;4985194;28;20057;-87
2022/10/19 10:04:06;;;;;;;11.07;3.95;;;;;;;12.96;100.00;102549.53;5009274;28;20543;-86
2022/10/19 10:07:12;;;;;;;7.93;3.40;;;;;;;12.97;100.00;102546.63;4984276;28;20047;-86
2022/10/19 10:09:43;;;;;;;10.70;3.35;;;;;;;13.10;100.00;102545.13;5000533;28;20494;-86
2022/10/19 10:12:55;;;;;;;;;;;;;;;;;;;;;
2022/10/19 10:16:02;;;;;;;10.98;2.70;;;;;;;13.17;100.00;102541.44;4925874;29;20737;-86
2022/10/19 10:25:20;;;;;;;8.90;2.08;;;;;;;13.02;100.00;102548.78;4993743;28;20515;-86
2022/10/19 10:28:30;;;;;;;13.48;2.40;;;;;;;13.08;100.00;102548.03;5022616;28;20049;-87
2022/10/19 10:31:22;;;;;;;9.40;1.88;;;;;;;13.23;100.00;102529.75;5023108;28;20121;-86
2022/10/19 10:34:26;;;;;;;14.13;2.22;;;;;;;13.45;100.00;102525.25;5015450;28;20108;-87
2022/10/19 10:36:54;;;;;;;11.13;2.10;;;;;;;13.73;100.00;102507.25;5019581;28;20176;-86
2022/10/19 10:45:41;;;;;;;9.07;3.45;;;;;;;14.03;100.00;102502.56;4965156;28;20061;-87
2022/10/19 10:51:45;;;;;;;10.15;1.85;;;;;;;13.61;100.00;102485.88;4941707;28;20138;-87
2022/10/19 10:54:55;;;;;;;7.28;1.70;;;;;;;13.83;100.00;102496.84;5018847;28;20790;-87
2022/10/19 10:58:02;;;;;;;15.60;2.20;;;;;;;13.99;100.00;102491.16;4962329;28;20127;-87
2022/10/19 11:00:33;;;;;;;16.80;1.88;;;;;;;14.14;100.00;102487.50;4919432;28;20042;-86
2022/10/19 11:09:20;;;;;;;12.63;2.60;;;;;;;14.39;100.00;102487.94;5007819;28;20057;-86
2022/10/19 11:14:59;;;;;;;9.60;2.10;;;;;;;14.38;100.00;102478.03;5020481;28;20045;-86
2022/10/19 11:18:04;;;;;;;11.73;2.20;;;;;;;14.60;100.00;102465.13;5021510;28;20052;-86
2022/10/19 11:20:32;;;;;;;8.10;1.75;;;;;;;14.42;100.00;102458.25;5021125;28;20087;-88
2022/10/19 11:32:54;;;;;;;12.88;2.40;;;;;;;14.85;100.00;102444.47;5037586;28;20065;-86
2022/10/19 11:39:15;;;;;;;9.18;1.75;;;;;;;14.92;100.00;102441.75;5016107;28;20649;-85
2022/10/19 11:59:22;;;;;;;10.88;1.92;;;;;;;15.56;100.00;102393.91;5025053;28;20042;-86
2022/10/19 12:02:33;;;;;;;9.07;1.95;;;;;;;15.56;100.00;102399.38;5019079;28;20042;-86
2022/10/19 12:12:08;;;;;;;7.78;1.83;;;;;;;15.63;100.00;102378.28;5000487;28;20095;-86
2022/10/19 12:17:46;;;;;;;10.68;2.20;;;;;;;15.31;100.00;102360.72;4992173;28;20136;-86
2022/10/19 12:20:54;;;;;;;11.30;2.15;;;;;;;15.36;100.00;102366.41;5015015;28;20041;-86
2022/10/19 12:24:06;;;;;;;6.32;1.52;;;;;;;15.26;100.00;102353.09;5025882;28;20096;-86
2022/10/19 12:33:41;;;;;;;16.55;2.90;;;;;;;15.41;100.00;102333.72;4939313;28;20059;-86
2022/10/19 12:36:56;;;;;;;9.90;1.83;;;;;;;15.67;100.00;102334.81;5009409;28;20704;-86
2022/10/19 12:40:00;;;;;;;5.68;1.60;;;;;;;15.67;100.00;102330.16;4906495;29;20056;-87
2022/10/19 12:49:54;;;;;;;7.65;1.95;;;;;;;15.93;100.00;102303.78;5010539;28;20053;-86
2022/10/19 12:53:07;;;;;;;9.98;2.05;;;;;;;15.62;100.00;102294.28;5027973;28;20120;-87
2022/10/19 12:58:58;;;;;;;;;;;;;;;;;;;;;
2022/10/19 13:01:55;;;;;;;11.07;2.05;;;;;;;15.54;100.00;102275.28;5024314;28;20037;-86
2022/10/19 13:07:35;;;;;;;11.55;2.05;;;;;;;16.07;100.00;102267.03;5024442;28;20052;-86
2022/10/19 13:10:18;;;;;;;15.05;2.88;;;;;;;16.15;100.00;102263.22;5020200;28;20107;-85
2022/10/19 13:13:05;;;;;;;;;;;;;;;;;;;;;
2022/10/19 13:15:55;;;;;;;9.50;2.35;;;;;;;15.56;100.00;102245.75;5034386;28;20140;-86
2022/10/19 13:19:10;;;;;;;9.70;2.30;;;;;;;15.74;100.00;102252.50;5030269;28;20052;-86
2022/10/19 13:32:53;;;;;;;10.90;2.05;;;;;;;15.98;100.00;102229.03;4997132;28;20044;-86
2022/10/19 13:36:05;;;;;;;11.43;2.00;;;;;;;15.67;100.00;102236.03;4966334;28;20066;-86
2022/10/19 13:38:45;;;;;;;15.07;2.70;;;;;;;15.61;100.00;102243.19;4928873;28;20057;-86
2022/10/19 13:41:32;;;;;;;6.75;2.20;;;;;;;15.67;100.00;102241.53;5028385;28;20074;-86
2022/10/19 13:51:44;;;;;;;7.28;2.15;;;;;;;15.99;100.00;102214.25;4957567;28;20053;-86
2022/10/19 13:54:55;;;;;;;;;;;;;;;;;;;;;
2022/10/19 13:58:16;;;;;;;;;;;;;;;;;;;;;
2022/10/19 14:22:50;;;;;;;10.60;2.05;;;;;;;15.54;100.00;102225.06;4874936;29;20138;-86
2022/10/19 14:36:04;;;;;;;9.95;1.98;;;;;;;15.34;100.00;102208.59;4925498;29;20055;-86
2022/10/19 14:49:41;;;;;;;7.47;1.75;;;;;;;15.19;100.00;102198.69;4947452;28;20145;-86
2022/10/19 14:52:48;;;;;;;15.65;2.67;;;;;;;15.52;100.00;102191.53;4947584;28;20532;-86
2022/10/19 14:55:59;;;;;;;8.13;1.70;;;;;;;15.62;100.00;102183.69;4966070;28;20676;-85
2022/10/19 15:01:31;;;;;;;9.93;1.67;;;;;;;15.10;100.00;102183.50;5026958;28;20059;-86
2022/10/19 15:04:35;;;;;;;8.05;1.83;;;;;;;15.33;100.00;102168.53;5023021;28;20125;-85
2022/10/19 15:07:41;;;;;;;6.85;2.03;;;;;;;15.42;100.00;102167.25;4980039;28;20136;-85
2022/10/19 15:10:41;;;;;;;10.25;1.60;;;;;;;15.35;100.00;102160.94;5040140;28;20071;-85
2022/10/19 15:13:44;;;;;;;6.80;1.73;;;;;;;15.34;100.00;102154.59;5017979;28;20049;-86
2022/10/19 15:37:49;;;;;;;10.38;1.80;;;;;;;14.39;100.00;102130.06;4831580;29;20134;-87
2022/10/19 15:55:00;;;;;;;10.50;2.88;;;;;;;13.77;100.00;102112.78;4975540;28;20056;-87
2022/10/19 15:58:07;;;;;;;16.95;2.42;;;;;;;13.90;100.00;102103.78;5027130;28;20423;-88
2022/10/19 16:00:34;;;;;;;13.27;2.20;;;;;;;13.86;100.00;102108.81;5027440;28;20426;-87
2022/10/19 16:03:07;;;;;;;7.75;1.77;;;;;;;13.58;100.00;102105.28;5044288;28;20455;-88
2022/10/19 16:05:54;;;;;;;12.82;2.30;;;;;;;13.53;100.00;102092.22;5031261;28;20042;-88
2022/10/19 16:08:24;;;;;;;11.85;3.10;;;;;;;13.72;100.00;102098.00;5024492;28;20136;-87
2022/10/19 16:15:21;;;;;;;;;;;;;;;;;;;;;
2022/10/19 16:18:18;;;;;;;13.55;3.08;;;;;;;13.68;100.00;102078.41;5027731;28;20650;-87
2022/10/19 16:31:03;;;;;;;13.35;3.20;;;;;;;12.98;100.00;102072.06;4988625;28;20049;-86
2022/10/19 16:34:00;;;;;;;12.82;2.78;;;;;;;12.91;100.00;102071.19;5042621;28;20458;-86
2022/10/19 16:40:34;;;;;;;10.75;3.28;;;;;;;12.71;100.00;102058.22;4963794;28;20483;-86
2022/10/19 16:43:42;;;;;;;11.48;3.42;;;;;;;12.89;100.00;102065.91;5022425;28;20044;-85
2022/10/19 16:49:32;;;;;;;14.90;3.28;;;;;;;12.75;100.00;102058.63;4960585;28;21093;-86
2022/10/19 16:52:30;;;;;;;10.68;3.45;;;;;;;12.47;100.00;102050.41;4974111;28;20061;-86
2022/10/19 16:55:23;;;;;;;9.70;3.60;;;;;;;12.43;100.00;102048.09;4979817;28;20462;-85
2022/10/19 17:01:31;;;;;;;13.60;4.63;;;;;;;12.21;100.00;102032.75;4955211;28;20058;-87
2022/10/19 17:04:07;;;;;;;11.27;5.25;;;;;;;12.36;100.00;102025.34;4952048;28;20469;-86
2022/10/19 17:07:22;;;;;;;;;;;;;;;;;;;;;
2022/10/19 17:10:20;;;;;;;17.13;5.45;;;;;;;12.21;100.00;102027.28;5010700;28;20568;-87
2022/10/19 17:12:59;;;;;;;10.35;4.78;;;;;;;12.25;100.00;102036.78;5029350;28;20041;-86
2022/10/19 17:16:06;;;;;;;23.85;6.28;;;;;;;12.25;100.00;102028.59;5035413;28;20132;-87
2022/10/19 17:22:23;;;;;;;15.13;4.57;;;;;;;12.18;100.00;102022.22;5009154;28;20093;-86
2022/10/19 17:28:42;;;;;;;13.13;5.07;;;;;;;12.09;100.00;102016.06;4945262;28;20061;-86
2022/10/19 17:34:56;;;;;;;18.70;4.75;;;;;;;12.30;100.00;102019.81;4976974;28;20039;-86
2022/10/19 17:47:19;;;;;;;18.45;5.47;;;;;;;11.99;100.00;102013.63;4993435;28;20096;-85
2022/10/19 17:50:33;;;;;;;13.82;4.88;;;;;;;12.23;100.00;102009.69;5023710;28;20119;-85
2022/10/19 17:53:00;;;;;;;11.77;4.88;;;;;;;11.97;100.00;102004.81;4981775;28;20051;-86
2022/10/19 17:56:00;;;;;;;16.45;5.30;;;;;;;12.38;100.00;102012.34;5035046;28;20456;-86
2022/10/19 17:59:07;;;;;;;;;;;;;;;;;;;;;
2022/10/19 18:02:14;;;;;;;14.32;5.72;;;;;;;12.30;100.00;102009.72;4991431;28;20045;-86
2022/10/19 18:04:46;;;;;;;15.48;5.68;;;;;;;12.24;100.00;102014.09;5038170;28;20434;-85
2022/10/19 18:11:04;;;;;;;17.53;6.30;;;;;;;12.13;100.00;102014.59;5000656;28;20053;-85
2022/10/19 18:13:34;;;;;;;18.17;6.20;;;;;;;12.03;100.00;102009.50;4960953;28;20144;-85
2022/10/19 18:23:13;;;;;;;12.95;5.53;;;;;;;11.69;100.00;102018.31;4904576;29;20079;-85
2022/10/19 18:37:19;;;;;;;14.70;6.07;;;;;;;11.76;100.00;102004.75;4892192;28;20121;-85
2022/10/19 18:44:33;;;;;;;;;;;;;;;;;;;;;
2022/10/19 18:47:47;;;;;;;15.95;4.53;;;;;;;11.52;100.00;101974.06;4910536;29;20055;-86
2022/10/19 18:54:08;;;;;;;12.32;5.55;;;;;;;11.42;100.00;101974.34;4891041;29;20048;-86
2022/10/19 19:00:09;;;;;;;13.93;5.05;;;;;;;11.48;100.00;101978.22;4944920;28;20058;-85
2022/10/19 19:03:24;;;;;;;19.45;5.20;;;;;;;11.70;100.00;101972.78;4939365;28;20069;-86
2022/10/19 19:06:23;;;;;;;14.07;5.15;;;;;;;11.52;100.00;101963.16;4979239;28;20225;-86
2022/10/19 19:15:56;;;;;;;10.60;4.63;;;;;;;11.48;100.00;101950.97;4869002;28;20161;-86
2022/10/19 19:18:36;;;;;;;;;;;;;;;;;;;;;
2022/10/19 19:24:31;;;;;;;23.42;5.55;;;;;;;11.25;100.00;101947.53;5027938;28;20029;-85
2022/10/19 19:27:47;;;;;;;15.27;4.63;;;;;;;11.17;100.00;101938.41;5022118;28;20140;-86
2022/10/19 19:30:22;;;;;;;9.52;4.20;;;;;;;11.05;100.00;101929.06;5011586;28;20045;-86
2022/10/19 19:33:14;;;;;;;8.55;5.13;;;;;;;11.23;100.00;101907.69;5023955;28;20052;-85
2022/10/19 19:39:32;;;;;;;;;;;;;;;;;;;;;
2022/10/19 19:42:25;;;;;;;10.63;4.93;;;;;;;11.25;100.00;101895.75;5024981;28;20049;-86
2022/10/19 19:45:22;;;;;;;16.25;4.95;;;;;;;11.30;100.00;101893.31;5024691;28;20045;-86
2022/10/19 19:48:22;;;;;;;10.82;4.53;;;;;;;11.18;100.00;101880.19;5042232;28;20518;-86
2022/10/19 19:51:10;;;;;;;13.35;5.22;;;;;;;11.13;100.00;101866.28;5039810;28;20041;-86
2022/10/19 19:57:22;;;;;;;12.80;5.75;;;;;;;11.09;100.00;101864.13;5034431;28;20565;-86
2022/10/19 20:00:22;;;;;;;15.18;5.82;;;;;;;10.80;100.00;101866.72;5019121;28;20033;-86
2022/10/19 20:02:59;;;;;;;14.15;5.15;;;;;;;11.04;100.00;101855.69;5006396;28;20584;-86
2022/10/19 20:09:45;;;;;;;13.25;5.72;;;;;;;10.68;100.00;101851.88;4920062;29;20586;-85
2022/10/19 20:12:19;;;;;;;10.88;4.78;;;;;;;10.76;100.00;101843.63;4965559;28;20068;-86
2022/10/19 20:15:21;;;;;;;14.95;4.90;;;;;;;10.44;100.00;101838.59;5018816;28;20514;-86
2022/10/19 20:18:30;;;;;;;13.20;5.38;;;;;;;10.89;100.00;101847.56;4932662;28;20062;-86
2022/10/19 20:24:48;;;;;;;13.02;5.38;;;;;;;10.33;100.00;101840.75;4970275;28;20070;-85
2022/10/19 20:30:43;;;;;;;16.02;5.85;;;;;;;10.49;100.00;101827.97;4984561;28;20053;-85
2022/10/19 20:33:20;;;;;;;18.77;5.57;;;;;;;10.27;100.00;101825.13;5023167;28;20041;-85
2022/10/19 20:36:09;;;;;;;17.83;5.28;;;;;;;10.36;100.00;101815.88;5021755;28;20057;-85
2022/10/19 20:39:13;;;;;;;11.48;4.18;;;;;;;10.29;100.00;101808.63;4987394;28;20050;-85
2022/10/19 20:42:25;;;;;;;17.83;6.07;;;;;;;10.33;100.00;101816.25;5023924;28;20458;-86
2022/10/19 20:45:22;;;;;;;23.10;5.20;;;;;;;10.22;100.00;101797.63;5039784;28;20045;-85
2022/10/19 20:47:49;;;;;;;12.55;5.05;;;;;;;10.14;100.00;101792.31;5019914;28;20045;-85
2022/10/19 20:50:32;;;;;;;12.60;5.20;;;;;;;10.02;100.00;101791.06;5041450;28;20491;-85
2022/10/19 20:53:38;;;;;;;12.90;5.05;;;;;;;10.05;100.00;101779.81;5022683;28;20042;-85
2022/10/19 20:56:17;;;;;;;13.88;6.15;;;;;;;10.18;100.00;101786.31;5024553;28;20053;-85
2022/10/19 20:59:26;;;;;;;11.48;6.28;;;;;;;10.20;100.00;101786.97;5026383;28;20103;-86
2022/10/19 21:02:06;;;;;;;13.07;5.68;;;;;;;10.30;100.00;101791.28;5028102;28;20041;-85
2022/10/19 21:04:47;;;;;;;10.10;4.95;;;;;;;10.04;100.00;101783.56;5028839;28;20061;-85
2022/10/19 21:07:23;;;;;;;13.68;5.30;;;;;;;10.26;100.00;101796.22;5029391;28;20069;-85
2022/10/19 21:09:54;;;;;;;11.90;5.07;;;;;;;10.11;100.00;101790.78;5040191;28;20041;-85
2022/10/19 21:12:53;;;;;;;;;;;;;;;;;;;;;
2022/10/19 21:15:25;;;;;;;19.85;5.82;;;;;;;10.18;100.00;101797.19;5027742;28;20151;-85
2022/10/19 21:17:54;;;;;;;11.38;5.80;;;;;;;9.88;100.00;101785.44;5040412;28;20415;-86
2022/10/19 21:20:21;;;;;;;14.52;5.80;;;;;;;10.07;100.00;101789.47;5046915;28;20077;-85